createdAt,value
2018-09-24T00:00:31.870Z,89.31
2018-09-24T00:01:41.693Z,89.4
2018-09-24T00:02:51.785Z,89.31
2018-09-24T00:04:01.646Z,89.4
2018-09-24T00:05:11.729Z,89.4
2018-09-24T00:06:21.820Z,89.31
2018-09-24T00:07:31.899Z,89.31
2018-09-24T00:08:41.970Z,89.4
2018-09-24T00:09:52.046Z,89.12
2018-09-24T00:11:02.129Z,89.4
2018-09-24T00:12:11.940Z,89.31
2018-09-24T00:13:22.083Z,89.12
2018-09-24T00:14:32.169Z,89.02
2018-09-24T00:15:42.240Z,89.69
2018-09-24T00:16:52.312Z,89.6
2018-09-24T00:18:02.371Z,89.22
2018-09-24T00:19:12.444Z,89.4
2018-09-24T00:20:22.546Z,89.6
2018-09-24T00:21:32.625Z,89.6
2018-09-24T00:22:42.697Z,89.6
2018-09-24T00:23:52.773Z,89.69
2018-09-24T00:25:03.709Z,89.6
2018-09-24T00:26:13.775Z,89.69
2018-09-24T00:27:23.850Z,89.6
2018-09-24T00:28:33.668Z,89.4
2018-09-24T00:29:43.270Z,89.4
2018-09-24T00:30:53.125Z,89.79
2018-09-24T00:32:05.994Z,89.79
2018-09-24T00:33:16.094Z,89.89
2018-09-24T00:34:26.185Z,89.98
2018-09-24T00:35:36.279Z,89.89
2018-09-24T00:36:46.163Z,89.89
2018-09-24T00:37:56.252Z,89.89
2018-09-24T00:39:06.065Z,89.6
2018-09-24T00:40:16.148Z,89.6
2018-09-24T00:41:25.962Z,89.6
2018-09-24T00:42:36.049Z,89.5
2018-09-24T00:43:45.608Z,89.98
2018-09-24T00:44:55.431Z,89.79
2018-09-24T00:46:05.574Z,89.69
2018-09-24T00:47:15.669Z,89.65
2018-09-24T00:48:25.812Z,89.94
2018-09-24T00:49:35.907Z,89.94
2018-09-24T00:50:45.471Z,90.32
2018-09-24T00:51:55.286Z,90.56
2018-09-24T00:53:05.348Z,90.37
2018-09-24T00:54:14.946Z,90.47
2018-09-24T00:55:24.770Z,90.56
2018-09-24T00:56:34.853Z,90.47
2018-09-24T00:57:44.416Z,90.14
2018-09-24T00:58:54.234Z,90.42
2018-09-24T01:00:06.294Z,90.14
2018-09-24T01:01:16.110Z,90.04
2018-09-24T01:02:26.197Z,90.04
2018-09-24T01:03:36.276Z,90.33
2018-09-24T01:04:46.349Z,90.14
2018-09-24T01:05:56.419Z,89.8
2018-09-24T01:07:06.485Z,89.71
2018-09-24T01:08:16.559Z,89.32
2018-09-24T01:09:26.098Z,89.51
2018-09-24T01:10:35.653Z,89.51
2018-09-24T01:11:45.772Z,89.51
2018-09-24T01:12:55.577Z,89.61
2018-09-24T01:14:06.564Z,89.61
2018-09-24T01:15:16.901Z,89.8
2018-09-24T01:16:26.777Z,89.61
2018-09-24T01:17:36.890Z,89.57
2018-09-24T01:18:46.975Z,89.66
2018-09-24T01:19:57.057Z,89.28
2018-09-24T01:21:06.610Z,89.28
2018-09-24T01:22:16.682Z,89.57
2018-09-24T01:23:26.767Z,89.37
2018-09-24T01:24:36.851Z,89.57
2018-09-24T01:25:46.944Z,89.37
2018-09-24T01:26:57.013Z,89.33
2018-09-24T01:28:06.822Z,89.43
2018-09-24T01:29:16.956Z,89.33
2018-09-24T01:30:27.038Z,89.23
2018-09-24T01:31:37.131Z,89.14
2018-09-24T01:32:47.219Z,89.33
2018-09-24T01:33:57.291Z,89.33
2018-09-24T01:35:07.450Z,89.29
2018-09-24T01:36:17.543Z,89.09
2018-09-24T01:37:27.602Z,88.81
2018-09-24T01:38:37.681Z,88.85
2018-09-24T01:39:47.509Z,88.81
2018-09-24T01:40:57.580Z,89
2018-09-24T01:42:07.982Z,88.9
2018-09-24T01:43:18.054Z,88.71
2018-09-24T01:44:28.124Z,89.19
2018-09-24T01:45:37.916Z,88.71
2018-09-24T01:46:48.061Z,88.71
2018-09-24T01:47:58.123Z,89
2018-09-24T01:49:09.051Z,88.9
2018-09-24T01:50:19.134Z,88.9
2018-09-24T01:51:29.207Z,88.9
2018-09-24T01:52:39.064Z,88.9
2018-09-24T01:53:49.131Z,88.9
2018-09-24T01:54:59.197Z,88.52
2018-09-24T01:56:09.296Z,88.9
2018-09-24T01:57:19.364Z,88.71
2018-09-24T01:58:29.479Z,89
2018-09-24T01:59:39.554Z,88.52
2018-09-24T02:00:49.616Z,89.09
2018-09-24T02:01:59.714Z,88.62
2018-09-24T02:03:09.789Z,88.9
2018-09-24T02:04:19.940Z,88.9
2018-09-24T02:05:30.015Z,88.81
2018-09-24T02:06:40.083Z,88.62
2018-09-24T02:07:50.164Z,88.57
2018-09-24T02:08:59.707Z,88.67
2018-09-24T02:10:09.860Z,89.05
2018-09-24T02:11:19.947Z,88.86
2018-09-24T02:12:30.038Z,88.86
2018-09-24T02:13:40.120Z,88.95
2018-09-24T02:14:50.196Z,88.76
2018-09-24T02:16:00.284Z,88.95
2018-09-24T02:17:10.363Z,89.05
2018-09-24T02:18:20.431Z,88.57
2018-09-24T02:19:30.501Z,89.05
2018-09-24T02:20:40.578Z,88.48
2018-09-24T02:21:50.778Z,88.67
2018-09-24T02:23:00.864Z,88.38
2018-09-24T02:24:10.940Z,88.38
2018-09-24T02:25:20.750Z,88.38
2018-09-24T02:26:30.823Z,89.05
2018-09-24T02:27:40.735Z,89.05
2018-09-24T02:28:50.807Z,89.05
2018-09-24T02:30:00.908Z,88.86
2018-09-24T02:31:10.990Z,89.05
2018-09-24T02:32:21.158Z,89.24
2018-09-24T02:33:31.084Z,89.05
2018-09-24T02:34:41.216Z,89.05
2018-09-24T02:35:51.037Z,88.67
2018-09-24T02:37:01.105Z,88.86
2018-09-24T02:38:10.909Z,88.86
2018-09-24T02:39:20.741Z,88.86
2018-09-24T02:40:30.813Z,88.62
2018-09-24T02:41:40.878Z,88.62
2018-09-24T02:42:50.967Z,89.01
2018-09-24T02:44:00.788Z,88.53
2018-09-24T02:45:10.849Z,89.01
2018-09-24T02:46:20.916Z,89.01
2018-09-24T02:47:31.054Z,88.53
2018-09-24T02:48:40.885Z,88.34
2018-09-24T02:49:50.950Z,88.53
2018-09-24T02:51:01.036Z,88.43
2018-09-24T02:52:10.851Z,88.72
2018-09-24T02:53:20.916Z,88.43
2018-09-24T02:54:30.997Z,88.72
2018-09-24T02:55:41.081Z,88.53
2018-09-24T02:56:51.151Z,88.62
2018-09-24T02:58:01.215Z,88.53
2018-09-24T02:59:11.296Z,88.34
2018-09-24T03:00:21.371Z,88.62
2018-09-24T03:01:31.565Z,88.72
2018-09-24T03:02:41.633Z,88.34
2018-09-24T03:34:33.388Z,82.48
2018-09-24T03:35:43.222Z,82.38
2018-09-24T03:36:53.261Z,83.24
2018-09-24T03:38:03.339Z,84
2018-09-24T03:39:13.424Z,84.96
2018-09-24T03:40:23.489Z,85.82
2018-09-24T03:41:33.561Z,86.58
2018-09-24T03:42:43.748Z,86.58
2018-09-24T03:43:53.555Z,87.15
2018-09-24T03:45:03.374Z,87.06
2018-09-24T03:46:13.466Z,87.54
2018-09-24T03:47:23.544Z,87.77
2018-09-24T03:48:33.637Z,87.39
2018-09-24T03:49:43.723Z,88.15
2018-09-24T03:50:53.807Z,88.06
2018-09-24T03:52:03.743Z,88.15
2018-09-24T03:53:13.575Z,87.96
2018-09-24T03:54:23.906Z,88.54
2018-09-24T03:55:34.032Z,88.25
2018-09-24T03:56:44.119Z,87.96
2018-09-24T03:57:54.258Z,88.54
2018-09-24T03:59:04.549Z,88.48
2018-09-24T04:00:14.821Z,88.58
2018-09-24T04:01:24.918Z,88.48
2018-09-24T04:02:34.996Z,88.25
2018-09-24T04:03:45.120Z,88.48
2018-09-24T04:04:55.195Z,88.54
2018-09-24T04:06:05.258Z,88.58
2018-09-24T04:07:14.811Z,88.77
2018-09-24T04:08:24.896Z,88.54
2018-09-24T04:09:35.176Z,88.73
2018-09-24T04:10:45.770Z,88.63
2018-09-24T04:11:56.083Z,88.58
2018-09-24T04:13:05.888Z,88.58
2018-09-24T04:14:15.968Z,88.25
2018-09-24T04:15:25.809Z,88.54
2018-09-24T04:16:35.615Z,88.92
2018-09-24T04:17:45.426Z,88.92
2018-09-24T04:18:55.513Z,88.92
2018-09-24T04:20:06.191Z,88.54
2018-09-24T04:21:16.278Z,88.96
2018-09-24T04:22:26.364Z,88.25
2018-09-24T04:23:36.434Z,88.48
2018-09-24T04:24:46.531Z,88.44
2018-09-24T04:25:56.629Z,88.54
2018-09-24T04:27:06.871Z,88.44
2018-09-24T04:28:16.951Z,88.73
2018-09-24T04:29:27.005Z,88.54
2018-09-24T04:30:37.167Z,88.54
2018-09-24T04:31:47.250Z,88.44
2018-09-24T04:32:57.326Z,88.34
2018-09-24T04:34:07.410Z,88.29
2018-09-24T04:35:17.472Z,88.29
2018-09-24T04:36:27.596Z,88.48
2018-09-24T04:37:37.406Z,88.29
2018-09-24T04:38:47.488Z,88.39
2018-09-24T04:39:57.567Z,88.29
2018-09-24T04:41:07.636Z,87.91
2018-09-24T04:42:17.753Z,88.01
2018-09-24T04:43:27.588Z,88.39
2018-09-24T04:44:37.143Z,88.29
2018-09-24T04:45:47.255Z,88.29
2018-09-24T04:46:57.062Z,87.91
2018-09-24T04:48:07.279Z,87.91
2018-09-24T04:49:17.831Z,88.29
2018-09-24T04:50:28.189Z,88.29
2018-09-24T04:51:38.266Z,88.1
2018-09-24T04:52:48.358Z,88.29
2018-09-24T04:53:58.449Z,88.58
2018-09-24T04:55:09.093Z,88.39
2018-09-24T04:56:19.161Z,88.29
2018-09-24T04:57:29.260Z,88.58
2018-09-24T04:58:39.488Z,88.48
2018-09-24T04:59:50.178Z,88.48
2018-09-24T05:01:00.412Z,88.39
2018-09-24T05:02:10.248Z,88.58
2018-09-24T05:03:20.063Z,88.68
2018-09-24T05:04:29.629Z,88.48
2018-09-24T05:05:39.742Z,88.29
2018-09-24T05:06:49.806Z,88.25
2018-09-24T05:07:59.872Z,88.34
2018-09-24T05:09:09.944Z,88.44
2018-09-24T05:10:20.192Z,88.63
2018-09-24T05:11:29.804Z,88.25
2018-09-24T05:12:40.231Z,88.34
2018-09-24T05:13:50.392Z,88.92
2018-09-24T05:15:01.472Z,88.92
2018-09-24T05:16:11.508Z,88.63
2018-09-24T05:17:21.232Z,88.25
2018-09-24T05:18:31.309Z,88.34
2018-09-24T05:19:41.407Z,88.54
2018-09-24T05:20:51.485Z,88.54
2018-09-24T05:22:01.604Z,88.25
2018-09-24T05:23:11.422Z,88.34
2018-09-24T05:24:21.523Z,88.54
2018-09-24T05:25:31.582Z,87.87
2018-09-24T05:26:41.639Z,87.91
2018-09-24T05:27:51.455Z,87.62
2018-09-24T05:29:02.466Z,87.43
2018-09-24T05:30:12.278Z,87.29
2018-09-24T05:31:22.111Z,87.19
2018-09-24T05:32:32.175Z,87
2018-09-24T05:33:42.064Z,86.8
2018-09-24T05:34:51.607Z,86.8
2018-09-24T05:36:01.696Z,87
2018-09-24T05:37:11.792Z,86.9
2018-09-24T05:38:21.339Z,86.94
2018-09-24T05:39:31.226Z,87.14
2018-09-24T05:40:41.300Z,86.85
2018-09-24T05:41:51.369Z,87.04
2018-09-24T05:43:01.447Z,86.37
2018-09-24T05:44:11.254Z,86.57
2018-09-24T05:45:21.089Z,87.33
2018-09-24T05:46:31.204Z,86.66
2018-09-24T05:47:41.291Z,86.61
2018-09-24T05:48:50.855Z,86.61
2018-09-24T05:50:03.081Z,86.7
2018-09-24T05:51:12.977Z,86.7
2018-09-24T05:52:23.060Z,86.46
2018-09-24T05:53:33.147Z,86.13
2018-09-24T05:54:43.224Z,86.17
2018-09-24T05:55:53.030Z,86.46
2018-09-24T05:57:04.053Z,86.36
2018-09-24T05:58:13.894Z,86.46
2018-09-24T05:59:23.975Z,86.46
2018-09-24T06:00:34.076Z,86.17
2018-09-24T06:01:44.155Z,86.36
2018-09-24T06:02:54.273Z,86.27
2018-09-24T06:04:04.843Z,85.98
2018-09-24T06:05:14.640Z,86.31
2018-09-24T06:06:24.444Z,86.46
2018-09-24T06:07:34.284Z,85.98
2018-09-24T06:08:44.359Z,86.27
2018-09-24T06:09:54.528Z,86.74
2018-09-24T06:11:04.618Z,86.36
2018-09-24T06:12:14.692Z,86.55
2018-09-24T06:13:24.491Z,86.21
2018-09-24T06:14:34.722Z,86.21
2018-09-24T06:15:44.830Z,85.64
2018-09-24T06:16:54.923Z,85.54
2018-09-24T06:18:04.738Z,85.39
2018-09-24T06:19:14.821Z,85.49
2018-09-24T06:20:24.913Z,85.3
2018-09-24T06:21:35.045Z,84.86
2018-09-24T06:22:45.107Z,85.05
2018-09-24T06:23:55.207Z,84.38
2018-09-24T06:25:05.275Z,84.71
2018-09-24T06:26:15.091Z,84.33
2018-09-24T06:27:25.170Z,84.14
2018-09-24T06:28:35.340Z,84.08
2018-09-24T06:29:44.905Z,84.18
2018-09-24T06:30:54.991Z,85.04
2018-09-24T06:32:05.105Z,84.56
2018-09-24T06:33:15.230Z,84.56
2018-09-24T06:34:25.510Z,85.04
2018-09-24T06:35:35.673Z,85.48
2018-09-24T06:36:45.754Z,85.58
2018-09-24T06:37:55.838Z,85.67
2018-09-24T06:39:06.214Z,85.67
2018-09-24T06:40:15.829Z,85.67
2018-09-24T06:41:25.895Z,85.67
2018-09-24T06:42:35.715Z,86.11
2018-09-24T06:43:45.813Z,86.58
2018-09-24T06:44:55.637Z,87.26
2018-09-24T06:46:05.763Z,87.41
2018-09-24T06:47:15.863Z,87.21
2018-09-24T06:48:25.959Z,87.88
2018-09-24T06:49:35.857Z,87.21
2018-09-24T06:50:46.267Z,87.41
2018-09-24T06:51:56.065Z,87.02
2018-09-24T06:53:05.887Z,86.83
2018-09-24T06:54:15.704Z,86.88
2018-09-24T06:55:25.524Z,86.54
2018-09-24T06:56:35.606Z,86.68
2018-09-24T06:57:45.673Z,86.4
2018-09-24T06:58:55.763Z,86.68
2018-09-24T07:00:05.872Z,86.74
2018-09-24T07:01:16.526Z,86.74
2018-09-24T07:02:26.659Z,86.64
2018-09-24T07:03:36.471Z,86.54
2018-09-24T07:04:46.543Z,86.54
2018-09-24T07:05:56.688Z,86.4
2018-09-24T07:07:06.763Z,85.53
2018-09-24T07:08:16.578Z,86.01
2018-09-24T07:09:26.667Z,85.63
2018-09-24T07:10:36.751Z,85.97
2018-09-24T07:11:46.832Z,85.97
2018-09-24T07:12:56.925Z,85.44
2018-09-24T07:14:06.757Z,85.82
2018-09-24T07:15:16.832Z,85.53
2018-09-24T07:16:26.901Z,85.63
2018-09-24T07:17:36.986Z,85.34
2018-09-24T07:18:47.077Z,85.63
2018-09-24T07:19:57.163Z,85.92
2018-09-24T07:21:07.242Z,85.63
2018-09-24T07:22:17.315Z,85.72
2018-09-24T07:23:27.429Z,86.74
2018-09-24T07:24:37.506Z,86.98
2018-09-24T07:25:47.599Z,87.08
2018-09-24T07:26:57.693Z,87.08
2018-09-24T07:28:07.384Z,87.08
2018-09-24T07:29:17.760Z,87.17
2018-09-24T07:30:27.588Z,87.41
2018-09-24T07:31:37.217Z,87.51
2018-09-24T07:32:47.310Z,87.41
2018-09-24T07:33:57.440Z,87.7
2018-09-24T07:35:07.513Z,87.99
2018-09-24T07:36:17.328Z,87.32
2018-09-24T07:37:27.461Z,87.23
2018-09-24T07:38:37.592Z,87.23
2018-09-24T07:39:47.391Z,87.23
2018-09-24T07:40:57.202Z,86.94
2018-09-24T07:42:07.282Z,87.08
2018-09-24T07:43:17.371Z,86.84
2018-09-24T07:44:27.397Z,86.31
2018-09-24T07:45:37.486Z,85.83
2018-09-24T07:46:47.571Z,85.83
2018-09-24T07:47:57.385Z,85.49
2018-09-24T07:49:07.261Z,84.72
2018-09-24T07:50:17.360Z,84.72
2018-09-24T07:51:27.184Z,84.82
2018-09-24T07:52:37.272Z,85.05
2018-09-24T07:53:47.365Z,84.95
2018-09-24T07:54:57.470Z,84.48
2018-09-24T07:56:07.553Z,83.94
2018-09-24T07:57:17.642Z,84.04
2018-09-24T07:58:27.452Z,83.85
2018-09-24T07:59:37.546Z,83.85
2018-09-24T08:00:47.636Z,83.22
2018-09-24T08:01:57.853Z,82.74
2018-09-24T08:03:09.290Z,82.87
2018-09-24T08:04:19.112Z,83.16
2018-09-24T08:05:28.930Z,82.82
2018-09-24T08:06:38.745Z,83.54
2018-09-24T08:07:48.844Z,83.36
2018-09-24T08:08:58.669Z,83.11
2018-09-24T08:10:11.154Z,83.3
2018-09-24T08:11:20.963Z,83.59
2018-09-24T08:12:31.095Z,82.86
2018-09-24T08:13:41.199Z,83.06
2018-09-24T08:14:51.274Z,83.29
2018-09-24T08:16:01.089Z,83
2018-09-24T08:17:11.165Z,83.86
2018-09-24T08:18:21.268Z,84.01
2018-09-24T08:19:31.342Z,84.21
2018-09-24T08:20:40.922Z,84.4
2018-09-24T08:21:50.769Z,83.92
2018-09-24T08:23:00.859Z,83.97
2018-09-24T08:24:11.009Z,84.4
2018-09-24T08:25:21.096Z,84.26
2018-09-24T08:26:31.188Z,84.55
2018-09-24T08:27:41.274Z,84.94
2018-09-24T08:28:51.497Z,85.75
2018-09-24T08:30:01.904Z,85.75
2018-09-24T08:31:11.454Z,86.38
2018-09-24T08:32:21.543Z,86.38
2018-09-24T08:33:31.629Z,86.38
2018-09-24T08:34:41.748Z,86.29
2018-09-24T08:35:51.840Z,86.19
2018-09-24T08:37:01.923Z,86.29
2018-09-24T08:38:12.163Z,86.63
2018-09-24T08:39:22.449Z,86.54
2018-09-24T08:40:32.538Z,86.44
2018-09-24T08:41:42.621Z,86.25
2018-09-24T08:42:52.715Z,86.05
2018-09-24T08:44:02.930Z,86.15
2018-09-24T08:45:13.277Z,86.25
2018-09-24T08:46:23.357Z,86.25
2018-09-24T08:47:33.466Z,85.92
2018-09-24T08:48:43.558Z,85.72
2018-09-24T08:49:53.797Z,85.63
2018-09-24T08:51:06.171Z,85.58
2018-09-24T08:52:15.973Z,84.91
2018-09-24T08:53:26.285Z,84.91
2018-09-24T08:54:36.518Z,83.98
2018-09-24T08:55:46.657Z,82.87
2018-09-24T08:56:56.927Z,83.3
2018-09-24T08:58:07.260Z,83.01
2018-09-24T08:59:17.169Z,82.73
2018-09-24T09:00:27.308Z,83.11
2018-09-24T09:01:37.407Z,82.86
2018-09-24T09:02:47.710Z,82.9
2018-09-24T09:03:57.613Z,82.52
2018-09-24T09:05:07.894Z,82.52
2018-09-24T09:06:17.962Z,82.71
2018-09-24T09:07:28.111Z,82.71
2018-09-24T09:08:38.198Z,82.37
2018-09-24T09:09:48.037Z,82.81
2018-09-24T09:10:58.166Z,83.19
2018-09-24T09:12:08.262Z,83
2018-09-24T09:13:18.326Z,83.29
2018-09-24T09:14:27.870Z,82.9
2018-09-24T09:15:37.945Z,83.44
2018-09-24T09:16:48.056Z,83.92
2018-09-24T09:17:57.846Z,83.63
2018-09-24T09:19:07.935Z,83.92
2018-09-24T09:20:18.017Z,84.01
2018-09-24T09:21:28.094Z,83.83
2018-09-24T09:22:38.158Z,83.63
2018-09-24T09:23:54.576Z,83.44
2018-09-24T09:25:04.934Z,83.09
2018-09-24T09:26:14.758Z,83.09
2018-09-24T09:27:24.573Z,82.9
2018-09-24T09:28:34.798Z,83
2018-09-24T09:29:44.885Z,83.29
2018-09-24T09:30:54.976Z,83
2018-09-24T09:32:04.767Z,82.9
2018-09-24T09:33:14.062Z,82.81
2018-09-24T09:34:24.186Z,82.61
2018-09-24T09:35:34.256Z,83.48
2018-09-24T09:36:44.344Z,83.33
2018-09-24T09:37:54.427Z,83.42
2018-09-24T09:39:04.482Z,83.23
2018-09-24T09:40:14.614Z,83.04
2018-09-24T09:41:24.683Z,83.33
2018-09-24T09:42:34.764Z,83.33
2018-09-24T09:43:44.839Z,83.04
2018-09-24T09:44:54.670Z,82.94
2018-09-24T09:46:04.742Z,82.94
2018-09-24T09:47:14.827Z,83.58
2018-09-24T09:48:24.937Z,83.58
2018-09-24T09:49:35.041Z,83.29
2018-09-24T09:50:45.124Z,83.29
2018-09-24T09:51:55.001Z,83.86
2018-09-24T09:53:05.086Z,84.16
2018-09-24T09:54:15.166Z,84.5
2018-09-24T09:55:25.241Z,84.11
2018-09-24T09:56:35.045Z,84.59
2018-09-24T09:57:45.133Z,84.11
2018-09-24T09:58:54.969Z,83.25
2018-09-24T10:00:05.230Z,83.29
2018-09-24T10:01:15.300Z,83
2018-09-24T10:02:25.375Z,83
2018-09-24T10:03:35.554Z,83.29
2018-09-24T10:04:45.733Z,83.63
2018-09-24T10:05:56.210Z,83.92
2018-09-24T10:07:06.285Z,83.83
2018-09-24T10:08:16.112Z,83.19
2018-09-24T10:09:26.199Z,83.67
2018-09-24T10:10:36.284Z,83.09
2018-09-24T10:11:46.384Z,83.67
2018-09-24T10:12:56.684Z,83
2018-09-24T10:14:07.289Z,83.19
2018-09-24T10:15:17.433Z,83.19
2018-09-24T10:16:27.528Z,83.14
2018-09-24T10:17:37.354Z,83
2018-09-24T10:18:47.427Z,83.48
2018-09-24T10:19:57.529Z,84.34
2018-09-24T10:21:07.614Z,85.07
2018-09-24T10:22:17.701Z,85.71
2018-09-24T10:23:27.778Z,85.51
2018-09-24T10:24:37.611Z,85.85
2018-09-24T10:25:47.697Z,85.66
2018-09-24T10:26:57.782Z,85.22
2018-09-24T10:28:07.870Z,84.94
2018-09-24T10:29:17.944Z,84.84
2018-09-24T10:30:27.743Z,84.84
2018-09-24T10:31:37.886Z,83.69
2018-09-24T10:32:48.082Z,83.06
2018-09-24T10:33:57.898Z,82.42
2018-09-24T10:35:07.993Z,82.56
2018-09-24T10:36:18.085Z,82.46
2018-09-24T10:37:27.904Z,82.79
2018-09-24T10:38:38.042Z,82.79
2018-09-24T10:39:47.794Z,82.6
2018-09-24T10:40:57.923Z,82.41
2018-09-24T10:42:08.015Z,83.18
2018-09-24T10:43:17.857Z,82.94
2018-09-24T10:44:27.925Z,82.75
2018-09-24T10:45:37.750Z,83.33
2018-09-24T10:46:47.837Z,84.39
2018-09-24T10:47:57.912Z,84.29
2018-09-24T10:49:10.576Z,83.72
2018-09-24T10:50:20.396Z,84.39
2018-09-24T10:51:30.211Z,84.39
2018-09-24T10:52:40.290Z,84.58
2018-09-24T10:53:50.445Z,84.97
2018-09-24T10:55:00.560Z,85.4
2018-09-24T10:56:10.834Z,85.27
2018-09-24T10:57:20.912Z,85.17
2018-09-24T10:58:30.986Z,85.55
2018-09-24T10:59:41.142Z,85.27
2018-09-24T11:00:51.625Z,85.17
2018-09-24T11:02:01.939Z,84.88
2018-09-24T11:03:12.231Z,85.17
2018-09-24T11:04:22.041Z,84.25
2018-09-24T11:05:32.116Z,84.06
2018-09-24T11:06:42.201Z,84.25
2018-09-24T11:07:52.286Z,83.33
2018-09-24T11:09:02.105Z,83.14
2018-09-24T11:10:12.275Z,83.08
2018-09-24T11:11:22.640Z,82.89
2018-09-24T11:12:32.724Z,81.87
2018-09-24T11:13:42.540Z,82.29
2018-09-24T11:14:52.635Z,81.76
2018-09-24T11:16:02.767Z,81.85
2018-09-24T11:17:14.177Z,81.76
2018-09-24T11:18:25.686Z,81.9
2018-09-24T11:19:35.862Z,82.18
2018-09-24T11:20:45.760Z,82.38
2018-09-24T11:21:55.600Z,82.82
2018-09-24T11:23:06.508Z,83.26
2018-09-24T11:24:16.708Z,83.26
2018-09-24T11:25:26.546Z,83.61
2018-09-24T11:26:36.381Z,83.89
2018-09-24T11:27:46.464Z,83.31
2018-09-24T11:28:56.260Z,83.8
2018-09-24T11:30:06.288Z,84.05
2018-09-24T11:31:16.427Z,84.48
2018-09-24T11:32:26.527Z,84.97
2018-09-24T11:33:36.076Z,84.87
2018-09-24T11:34:46.165Z,84.92
2018-09-24T11:35:55.983Z,84.98
2018-09-24T11:37:06.659Z,85.46
2018-09-24T11:38:16.454Z,85.55
2018-09-24T11:39:26.545Z,85.51
2018-09-24T11:40:36.361Z,85.61
2018-09-24T11:41:46.431Z,86.18
2018-09-24T11:42:56.538Z,85.61
2018-09-24T11:44:06.628Z,85.22
2018-09-24T11:45:16.709Z,84.55
2018-09-24T11:46:26.289Z,84.74
2018-09-24T11:47:35.983Z,84.11
2018-09-24T11:48:46.068Z,83.73
2018-09-24T11:49:56.142Z,84.06
2018-09-24T11:51:08.683Z,84.06
2018-09-24T11:52:18.767Z,84.25
2018-09-24T11:53:28.612Z,84.4
2018-09-24T11:54:38.741Z,84.69
2018-09-24T11:55:48.810Z,85.41
2018-09-24T11:56:58.892Z,85.66
2018-09-24T11:58:08.846Z,85.85
2018-09-24T11:59:18.926Z,86.14
2018-09-24T12:00:29.057Z,86.33
2018-09-24T12:01:39.142Z,86.48
2018-09-24T12:02:49.216Z,86.38
2018-09-24T12:03:59.048Z,86.48
2018-09-24T12:05:09.131Z,86.38
2018-09-24T12:06:18.962Z,85.71
2018-09-24T12:07:28.767Z,85.28
2018-09-24T12:08:38.849Z,84.41
2018-09-24T12:09:48.971Z,84.26
2018-09-24T12:10:59.048Z,83.97
2018-09-24T12:12:09.144Z,83.63
2018-09-24T12:13:19.221Z,83.44
2018-09-24T12:14:29.314Z,83.83
2018-09-24T12:15:39.386Z,84.11
2018-09-24T12:16:49.467Z,84.11
2018-09-24T12:17:59.629Z,83.92
2018-09-24T12:19:09.989Z,84.01
2018-09-24T12:20:20.077Z,84.01
2018-09-24T12:21:30.153Z,83.83
2018-09-24T12:22:40.024Z,83.67
2018-09-24T12:23:49.864Z,83.77
2018-09-24T12:24:59.944Z,83
2018-09-24T12:26:10.042Z,83.14
2018-09-24T12:27:19.853Z,82.45
2018-09-24T12:28:29.954Z,82.87
2018-09-24T12:29:40.031Z,82.83
2018-09-24T12:30:49.832Z,84.23
2018-09-24T12:31:59.947Z,84.67
2018-09-24T12:33:10.029Z,85.6
2018-09-24T12:34:19.848Z,85.75
2018-09-24T12:35:29.972Z,86.13
2018-09-24T12:36:40.051Z,86.95
2018-09-24T12:37:50.123Z,86.95
2018-09-24T12:39:00.318Z,87.15
2018-09-24T12:40:10.420Z,87.01
2018-09-24T12:41:21.245Z,86.43
2018-09-24T12:42:31.328Z,86.43
2018-09-24T12:43:41.403Z,86.43
2018-09-24T12:44:51.474Z,86.24
2018-09-24T12:46:01.551Z,85.89
2018-09-24T12:47:11.407Z,85.8
2018-09-24T12:48:21.584Z,85.89
2018-09-24T12:49:31.742Z,85.71
2018-09-24T12:50:41.860Z,85.8
2018-09-24T12:51:51.961Z,85.99
2018-09-24T12:53:02.055Z,85.51
2018-09-24T12:54:12.162Z,84.94
2018-09-24T12:55:22.236Z,85.13
2018-09-24T12:56:32.322Z,85.51
2018-09-24T12:57:42.431Z,85.8
2018-09-24T12:58:52.260Z,86.52
2018-09-24T13:00:02.636Z,86.91
2018-09-24T13:01:12.704Z,86.58
2018-09-24T13:02:22.782Z,86.58
2018-09-24T13:03:32.299Z,86.25
2018-09-24T13:04:42.376Z,86.15
2018-09-24T13:05:52.450Z,86.15
2018-09-24T13:07:02.519Z,86.05
2018-09-24T13:08:12.588Z,85.77
2018-09-24T13:09:22.789Z,85.86
2018-09-24T13:10:32.325Z,85.67
2018-09-24T13:11:42.388Z,84.91
2018-09-24T13:12:52.482Z,84.33
2018-09-24T13:14:03.738Z,83.8
2018-09-24T13:15:13.819Z,83.8
2018-09-24T13:16:23.916Z,84.08
2018-09-24T13:17:34.091Z,84.56
2018-09-24T13:18:44.205Z,85.28
2018-09-24T13:19:54.272Z,84.91
2018-09-24T13:21:04.359Z,84.47
2018-09-24T13:22:14.489Z,84.18
2018-09-24T13:23:24.321Z,84.31
2018-09-24T13:24:34.456Z,83.26
2018-09-24T13:25:44.547Z,83.3
2018-09-24T13:26:54.391Z,83.3
2018-09-24T13:28:04.647Z,83.3
2018-09-24T13:29:14.729Z,83.97
2018-09-24T13:30:24.865Z,83.59
2018-09-24T13:31:34.955Z,83.97
2018-09-24T13:32:45.102Z,84.45
2018-09-24T13:33:55.380Z,84.26
2018-09-24T13:35:05.603Z,84.21
2018-09-24T13:36:15.699Z,84.3
2018-09-24T13:37:25.773Z,84.01
2018-09-24T13:38:35.883Z,84.4
2018-09-24T13:39:45.954Z,84.11
2018-09-24T13:40:56.044Z,84.01
2018-09-24T13:42:08.030Z,84.34
2018-09-24T13:43:18.282Z,84.54
2018-09-24T13:44:28.676Z,84.34
2018-09-24T13:45:38.781Z,83.86
2018-09-24T13:46:48.874Z,83.86
2018-09-24T13:47:58.723Z,83.96
2018-09-24T13:49:08.803Z,84.92
2018-09-24T13:50:18.942Z,84.92
2018-09-24T13:51:29.041Z,84.63
2018-09-24T13:52:38.857Z,85.5
2018-09-24T13:53:48.954Z,85.84
2018-09-24T13:54:59.041Z,86.52
2018-09-24T13:56:09.144Z,86.76
2018-09-24T13:57:19.222Z,87.77
2018-09-24T13:58:29.390Z,87.35
2018-09-24T13:59:39.269Z,87.05
2018-09-24T14:00:49.081Z,87.25
2018-09-24T14:01:59.176Z,88.17
2018-09-24T14:03:09.272Z,88.31
2018-09-24T14:04:19.357Z,88.37
2018-09-24T14:05:29.484Z,88.32
2018-09-24T14:06:39.052Z,87.61
2018-09-24T14:07:49.163Z,87.8
2018-09-24T14:08:59.318Z,87.99
2018-09-24T14:10:09.414Z,87.41
2018-09-24T14:11:19.236Z,87.37
2018-09-24T14:12:29.345Z,86.9
2018-09-24T14:13:39.431Z,86.9
2018-09-24T14:14:49.814Z,86.74
2018-09-24T14:16:00.461Z,86.55
2018-09-24T14:17:11.013Z,86.61
2018-09-24T14:18:21.188Z,86.36
2018-09-24T14:19:31.539Z,85.79
2018-09-24T14:20:43.328Z,85.5
2018-09-24T14:21:55.457Z,85.6
2018-09-24T14:23:07.868Z,85.41
2018-09-24T14:24:19.568Z,85.5
2018-09-24T14:25:31.631Z,85.45
2018-09-24T14:26:44.330Z,85.25
2018-09-24T14:27:55.998Z,85.45
2018-09-24T14:29:08.216Z,85.35
2018-09-24T14:30:20.821Z,84.97
2018-09-24T14:31:33.954Z,85.06
2018-09-24T14:32:45.693Z,85.06
2018-09-24T14:33:57.319Z,84.88
2018-09-24T14:35:09.761Z,84.88
2018-09-24T14:36:22.583Z,85.01
2018-09-24T14:38:51.292Z,85.01
2018-09-24T14:40:02.331Z,84.91
2018-09-24T14:41:13.283Z,84.72
2018-09-24T14:42:24.150Z,84.82
2018-09-24T14:43:34.831Z,84.82
2018-09-24T14:44:45.515Z,85.11
2018-09-24T14:45:56.345Z,84.95
2018-09-24T14:47:09.477Z,85.15
2018-09-24T14:48:20.389Z,84.95
2018-09-24T14:49:31.706Z,85.05
2018-09-24T14:50:43.310Z,84.95
2018-09-24T14:51:54.420Z,84.61
2018-09-24T14:53:05.050Z,85
2018-09-24T14:54:16.170Z,85.28
2018-09-24T14:55:27.076Z,85.28
2018-09-24T14:56:38.815Z,85.1
2018-09-24T14:57:49.801Z,85
2018-09-24T14:58:59.890Z,85.19
2018-09-24T15:00:09.998Z,85.19
2018-09-24T15:01:20.108Z,85.38
2018-09-24T15:02:30.210Z,85.67
2018-09-24T15:03:40.470Z,85.58
2018-09-24T15:04:50.591Z,85.58
2018-09-24T15:06:00.397Z,85.67
2018-09-24T15:07:10.481Z,85.44
2018-09-24T15:08:19.828Z,85.67
2018-09-24T15:09:29.945Z,85.67
2018-09-24T15:10:40.024Z,85.58
2018-09-24T15:11:50.172Z,85.96
2018-09-24T15:13:01.160Z,85.67
2018-09-24T15:14:10.972Z,85.38
2018-09-24T15:15:21.050Z,85.48
2018-09-24T15:16:31.119Z,85.48
2018-09-24T15:17:41.197Z,85.58
2018-09-24T15:18:51.308Z,85.48
2018-09-24T15:20:01.432Z,85.48
2018-09-24T15:21:11.527Z,85.67
2018-09-24T15:22:21.627Z,86.05
2018-09-24T15:23:31.718Z,86.05
2018-09-24T15:24:41.821Z,86.15
2018-09-24T15:25:51.954Z,86.34
2018-09-24T15:27:02.040Z,86.4
2018-09-24T15:28:11.968Z,86.49
2018-09-24T15:29:21.781Z,86.58
2018-09-24T15:30:31.861Z,86.3
2018-09-24T15:31:41.690Z,86.4
2018-09-24T15:32:51.540Z,86.11
2018-09-24T15:34:01.633Z,86.3
2018-09-24T15:35:11.773Z,86.21
2018-09-24T15:36:21.862Z,86.78
2018-09-24T15:37:31.974Z,86.49
2018-09-24T15:38:41.824Z,87.26
2018-09-24T15:39:51.680Z,86.93